sensor_id;sensor_type;location;lat;lon;timestamp;temperature;humidity
1680;DHT22;838;51.794;12.258;2024-03-25T00:02:09;5.90;67.30
1680;DHT22;838;51.794;12.258;2024-03-25T00:04:35;5.90;67.10
1680;DHT22;838;51.794;12.258;2024-03-25T00:07:01;5.90;67.10
1680;DHT22;838;51.794;12.258;2024-03-25T00:09:27;5.90;67.70
1680;DHT22;838;51.794;12.258;2024-03-25T00:11:53;5.90;67.90
1680;DHT22;838;51.794;12.258;2024-03-25T00:14:23;5.90;68.10
1680;DHT22;838;51.794;12.258;2024-03-25T00:16:49;6.00;67.70
1680;DHT22;838;51.794;12.258;2024-03-25T00:19:15;6.10;67.70
1680;DHT22;838;51.794;12.258;2024-03-25T00:21:42;6.00;66.60
1680;DHT22;838;51.794;12.258;2024-03-25T00:24:08;6.10;66.80
1680;DHT22;838;51.794;12.258;2024-03-25T00:26:34;6.10;66.90
1680;DHT22;838;51.794;12.258;2024-03-25T00:28:59;6.20;66.80
1680;DHT22;838;51.794;12.258;2024-03-25T00:31:25;6.20;66.40
1680;DHT22;838;51.794;12.258;2024-03-25T00:33:51;6.20;65.40
1680;DHT22;838;51.794;12.258;2024-03-25T00:36:17;6.30;65.60
1680;DHT22;838;51.794;12.258;2024-03-25T00:38:43;6.20;65.10
1680;DHT22;838;51.794;12.258;2024-03-25T00:41:09;6.30;65.30
1680;DHT22;838;51.794;12.258;2024-03-25T00:43:35;6.20;65.00
1680;DHT22;838;51.794;12.258;2024-03-25T00:46:00;6.30;66.00
1680;DHT22;838;51.794;12.258;2024-03-25T00:48:26;6.20;66.10
1680;DHT22;838;51.794;12.258;2024-03-25T00:50:52;6.30;66.20
1680;DHT22;838;51.794;12.258;2024-03-25T00:53:18;6.30;66.30
1680;DHT22;838;51.794;12.258;2024-03-25T00:55:44;6.30;65.40
1680;DHT22;838;51.794;12.258;2024-03-25T00:58:10;6.30;65.60
1680;DHT22;838;51.794;12.258;2024-03-25T01:00:36;6.30;66.30
1680;DHT22;838;51.794;12.258;2024-03-25T01:03:01;6.40;67.10
1680;DHT22;838;51.794;12.258;2024-03-25T01:05:27;6.40;66.80
1680;DHT22;838;51.794;12.258;2024-03-25T01:07:53;6.30;66.90
1680;DHT22;838;51.794;12.258;2024-03-25T01:10:19;6.30;67.80
1680;DHT22;838;51.794;12.258;2024-03-25T01:12:45;6.30;68.20
1680;DHT22;838;51.794;12.258;2024-03-25T01:15:11;6.20;68.10
1680;DHT22;838;51.794;12.258;2024-03-25T01:17:37;6.20;68.50
1680;DHT22;838;51.794;12.258;2024-03-25T01:20:03;6.20;68.50
1680;DHT22;838;51.794;12.258;2024-03-25T01:22:32;6.30;68.20
1680;DHT22;838;51.794;12.258;2024-03-25T01:24:58;6.30;67.70
1680;DHT22;838;51.794;12.258;2024-03-25T01:27:23;6.40;67.80
1680;DHT22;838;51.794;12.258;2024-03-25T01:29:49;6.40;65.60
1680;DHT22;838;51.794;12.258;2024-03-25T01:32:15;6.40;65.90
1680;DHT22;838;51.794;12.258;2024-03-25T01:34:41;6.40;65.90
1680;DHT22;838;51.794;12.258;2024-03-25T01:37:06;6.40;64.30
1680;DHT22;838;51.794;12.258;2024-03-25T01:39:32;6.50;64.10
1680;DHT22;838;51.794;12.258;2024-03-25T01:41:58;6.50;63.60
1680;DHT22;838;51.794;12.258;2024-03-25T01:44:24;6.60;63.20
1680;DHT22;838;51.794;12.258;2024-03-25T01:46:50;6.60;62.50
1680;DHT22;838;51.794;12.258;2024-03-25T01:49:19;6.60;62.60
1680;DHT22;838;51.794;12.258;2024-03-25T01:51:46;6.50;60.60
1680;DHT22;838;51.794;12.258;2024-03-25T01:54:12;6.50;61.30
1680;DHT22;838;51.794;12.258;2024-03-25T01:56:42;6.50;60.20
1680;DHT22;838;51.794;12.258;2024-03-25T01:59:08;6.50;59.50
1680;DHT22;838;51.794;12.258;2024-03-25T02:01:34;6.60;60.00
1680;DHT22;838;51.794;12.258;2024-03-25T02:04:00;6.60;58.20
1680;DHT22;838;51.794;12.258;2024-03-25T02:06:27;6.60;58.40
1680;DHT22;838;51.794;12.258;2024-03-25T02:08:55;6.60;57.10
1680;DHT22;838;51.794;12.258;2024-03-25T02:11:22;6.70;56.60
1680;DHT22;838;51.794;12.258;2024-03-25T02:13:49;6.70;55.30
1680;DHT22;838;51.794;12.258;2024-03-25T02:16:15;6.80;53.50
1680;DHT22;838;51.794;12.258;2024-03-25T02:18:41;6.70;53.10
1680;DHT22;838;51.794;12.258;2024-03-25T02:21:07;6.70;52.70
1680;DHT22;838;51.794;12.258;2024-03-25T02:23:33;6.70;52.70
1680;DHT22;838;51.794;12.258;2024-03-25T02:26:00;6.70;52.80
1680;DHT22;838;51.794;12.258;2024-03-25T02:28:25;6.80;50.80
1680;DHT22;838;51.794;12.258;2024-03-25T02:30:51;6.70;49.50
1680;DHT22;838;51.794;12.258;2024-03-25T02:33:17;6.70;49.50
1680;DHT22;838;51.794;12.258;2024-03-25T02:35:43;6.70;49.80
1680;DHT22;838;51.794;12.258;2024-03-25T02:38:10;6.60;49.40
1680;DHT22;838;51.794;12.258;2024-03-25T02:40:36;6.60;49.40
1680;DHT22;838;51.794;12.258;2024-03-25T02:43:03;6.60;50.00
1680;DHT22;838;51.794;12.258;2024-03-25T02:45:29;6.50;50.20
1680;DHT22;838;51.794;12.258;2024-03-25T02:47:55;6.60;50.00
1680;DHT22;838;51.794;12.258;2024-03-25T02:50:21;6.50;48.80
1680;DHT22;838;51.794;12.258;2024-03-25T02:52:47;6.50;47.90
1680;DHT22;838;51.794;12.258;2024-03-25T02:55:12;6.40;48.00
1680;DHT22;838;51.794;12.258;2024-03-25T02:57:38;6.50;48.20
1680;DHT22;838;51.794;12.258;2024-03-25T03:00:04;6.50;47.70
1680;DHT22;838;51.794;12.258;2024-03-25T03:02:30;6.40;47.40
1680;DHT22;838;51.794;12.258;2024-03-25T03:04:56;6.40;48.40
1680;DHT22;838;51.794;12.258;2024-03-25T03:07:21;6.40;48.10
1680;DHT22;838;51.794;12.258;2024-03-25T03:09:47;6.30;47.10
1680;DHT22;838;51.794;12.258;2024-03-25T03:12:13;6.30;47.60
1680;DHT22;838;51.794;12.258;2024-03-25T03:14:39;6.30;48.90
1680;DHT22;838;51.794;12.258;2024-03-25T03:17:04;6.20;48.80
1680;DHT22;838;51.794;12.258;2024-03-25T03:19:31;6.20;48.80
1680;DHT22;838;51.794;12.258;2024-03-25T03:21:57;6.20;48.90
1680;DHT22;838;51.794;12.258;2024-03-25T03:24:23;6.10;49.10
1680;DHT22;838;51.794;12.258;2024-03-25T03:26:49;6.00;49.80
1680;DHT22;838;51.794;12.258;2024-03-25T03:29:15;6.00;49.90
1680;DHT22;838;51.794;12.258;2024-03-25T03:31:41;6.00;51.70
1680;DHT22;838;51.794;12.258;2024-03-25T03:34:07;6.00;51.30
1680;DHT22;838;51.794;12.258;2024-03-25T03:36:32;6.00;50.60
1680;DHT22;838;51.794;12.258;2024-03-25T03:38:58;6.00;51.00
1680;DHT22;838;51.794;12.258;2024-03-25T03:41:24;6.00;51.80
1680;DHT22;838;51.794;12.258;2024-03-25T03:43:50;6.00;51.10
1680;DHT22;838;51.794;12.258;2024-03-25T03:46:15;5.90;51.20
1680;DHT22;838;51.794;12.258;2024-03-25T03:48:41;6.00;51.40
1680;DHT22;838;51.794;12.258;2024-03-25T03:51:07;5.90;50.80
1680;DHT22;838;51.794;12.258;2024-03-25T03:53:34;5.90;50.60
1680;DHT22;838;51.794;12.258;2024-03-25T03:56:01;5.90;51.20
1680;DHT22;838;51.794;12.258;2024-03-25T03:58:28;5.90;50.20
1680;DHT22;838;51.794;12.258;2024-03-25T04:00:54;5.90;50.90
1680;DHT22;838;51.794;12.258;2024-03-25T04:03:20;5.90;50.80
1680;DHT22;838;51.794;12.258;2024-03-25T04:05:46;5.90;50.30
1680;DHT22;838;51.794;12.258;2024-03-25T04:08:12;5.90;49.90
1680;DHT22;838;51.794;12.258;2024-03-25T04:10:38;6.00;49.90
1680;DHT22;838;51.794;12.258;2024-03-25T04:13:05;6.00;48.80
1680;DHT22;838;51.794;12.258;2024-03-25T04:15:35;6.00;48.50
1680;DHT22;838;51.794;12.258;2024-03-25T04:18:01;6.00;49.20
1680;DHT22;838;51.794;12.258;2024-03-25T04:20:27;6.10;47.70
1680;DHT22;838;51.794;12.258;2024-03-25T04:22:56;6.10;47.70
1680;DHT22;838;51.794;12.258;2024-03-25T04:25:22;6.10;47.80
1680;DHT22;838;51.794;12.258;2024-03-25T04:27:48;6.00;46.20
1680;DHT22;838;51.794;12.258;2024-03-25T04:30:14;6.00;46.90
1680;DHT22;838;51.794;12.258;2024-03-25T04:32:40;5.90;48.60
1680;DHT22;838;51.794;12.258;2024-03-25T04:35:06;6.00;47.90
1680;DHT22;838;51.794;12.258;2024-03-25T04:37:34;6.00;47.80
1680;DHT22;838;51.794;12.258;2024-03-25T04:40:00;6.00;47.10
1680;DHT22;838;51.794;12.258;2024-03-25T04:42:26;6.00;46.50
1680;DHT22;838;51.794;12.258;2024-03-25T04:44:52;6.00;47.50
1680;DHT22;838;51.794;12.258;2024-03-25T04:47:19;6.10;46.80
1680;DHT22;838;51.794;12.258;2024-03-25T04:49:45;6.10;46.30
1680;DHT22;838;51.794;12.258;2024-03-25T04:52:12;6.10;45.80
1680;DHT22;838;51.794;12.258;2024-03-25T04:54:45;6.20;45.30
1680;DHT22;838;51.794;12.258;2024-03-25T04:57:11;6.20;44.60
1680;DHT22;838;51.794;12.258;2024-03-25T04:59:36;6.20;44.90
1680;DHT22;838;51.794;12.258;2024-03-25T05:02:02;6.20;44.50
1680;DHT22;838;51.794;12.258;2024-03-25T05:04:28;6.10;44.70
1680;DHT22;838;51.794;12.258;2024-03-25T05:06:54;6.10;44.80
1680;DHT22;838;51.794;12.258;2024-03-25T05:09:21;6.10;44.90
1680;DHT22;838;51.794;12.258;2024-03-25T05:11:46;6.20;43.10
1680;DHT22;838;51.794;12.258;2024-03-25T05:14:12;6.10;44.70
1680;DHT22;838;51.794;12.258;2024-03-25T05:16:38;6.20;44.70
1680;DHT22;838;51.794;12.258;2024-03-25T05:19:04;6.10;44.50
1680;DHT22;838;51.794;12.258;2024-03-25T05:21:32;6.20;43.70
1680;DHT22;838;51.794;12.258;2024-03-25T05:23:58;6.20;42.90
1680;DHT22;838;51.794;12.258;2024-03-25T05:26:24;6.30;42.20
1680;DHT22;838;51.794;12.258;2024-03-25T05:28:54;6.30;41.90
1680;DHT22;838;51.794;12.258;2024-03-25T05:31:20;6.30;41.30
1680;DHT22;838;51.794;12.258;2024-03-25T05:33:45;6.30;42.10
1680;DHT22;838;51.794;12.258;2024-03-25T05:36:11;6.30;42.20
1680;DHT22;838;51.794;12.258;2024-03-25T05:38:37;6.40;42.80
1680;DHT22;838;51.794;12.258;2024-03-25T05:41:03;6.40;42.50
1680;DHT22;838;51.794;12.258;2024-03-25T05:43:29;6.40;41.70
1680;DHT22;838;51.794;12.258;2024-03-25T05:45:55;6.30;43.30
1680;DHT22;838;51.794;12.258;2024-03-25T05:48:23;6.30;43.30
1680;DHT22;838;51.794;12.258;2024-03-25T05:51:06;6.40;43.70
1680;DHT22;838;51.794;12.258;2024-03-25T05:53:35;6.40;42.40
1680;DHT22;838;51.794;12.258;2024-03-25T05:56:01;6.40;42.00
1680;DHT22;838;51.794;12.258;2024-03-25T05:58:28;6.40;42.20
1680;DHT22;838;51.794;12.258;2024-03-25T06:00:54;6.50;42.70
1680;DHT22;838;51.794;12.258;2024-03-25T06:03:20;6.60;42.10
1680;DHT22;838;51.794;12.258;2024-03-25T06:05:46;6.60;41.30
1680;DHT22;838;51.794;12.258;2024-03-25T06:08:12;6.70;40.80
1680;DHT22;838;51.794;12.258;2024-03-25T06:10:51;6.70;39.70
1680;DHT22;838;51.794;12.258;2024-03-25T06:13:17;6.90;39.20
1680;DHT22;838;51.794;12.258;2024-03-25T06:15:42;6.80;39.10
1680;DHT22;838;51.794;12.258;2024-03-25T06:18:08;6.70;39.40
1680;DHT22;838;51.794;12.258;2024-03-25T06:20:34;6.70;39.50
1680;DHT22;838;51.794;12.258;2024-03-25T06:23:00;6.70;40.90
1680;DHT22;838;51.794;12.258;2024-03-25T06:25:27;6.80;41.20
1680;DHT22;838;51.794;12.258;2024-03-25T06:27:56;6.80;40.10
1680;DHT22;838;51.794;12.258;2024-03-25T06:30:22;6.90;39.40
1680;DHT22;838;51.794;12.258;2024-03-25T06:33:06;7.10;39.10
1680;DHT22;838;51.794;12.258;2024-03-25T06:35:51;7.10;37.70
1680;DHT22;838;51.794;12.258;2024-03-25T06:38:18;7.20;38.00
1680;DHT22;838;51.794;12.258;2024-03-25T06:40:45;7.30;36.90
1680;DHT22;838;51.794;12.258;2024-03-25T06:43:11;7.40;36.40
1680;DHT22;838;51.794;12.258;2024-03-25T06:45:38;7.50;35.20
1680;DHT22;838;51.794;12.258;2024-03-25T06:48:04;7.30;32.70
1680;DHT22;838;51.794;12.258;2024-03-25T06:50:29;7.50;33.50
1680;DHT22;838;51.794;12.258;2024-03-25T06:52:55;7.50;33.40
1680;DHT22;838;51.794;12.258;2024-03-25T06:55:21;7.60;34.10
1680;DHT22;838;51.794;12.258;2024-03-25T06:57:50;7.50;32.60
1680;DHT22;838;51.794;12.258;2024-03-25T07:00:16;7.50;33.30
1680;DHT22;838;51.794;12.258;2024-03-25T07:02:42;7.50;34.30
1680;DHT22;838;51.794;12.258;2024-03-25T07:05:08;7.60;34.00
1680;DHT22;838;51.794;12.258;2024-03-25T07:07:34;7.70;32.20
1680;DHT22;838;51.794;12.258;2024-03-25T07:10:00;7.70;33.90
1680;DHT22;838;51.794;12.258;2024-03-25T07:12:26;7.80;31.20
1680;DHT22;838;51.794;12.258;2024-03-25T07:14:52;7.70;29.90
1680;DHT22;838;51.794;12.258;2024-03-25T07:17:18;7.80;31.20
1680;DHT22;838;51.794;12.258;2024-03-25T07:19:52;7.70;30.10
1680;DHT22;838;51.794;12.258;2024-03-25T07:22:18;7.60;30.80
1680;DHT22;838;51.794;12.258;2024-03-25T07:24:44;7.60;31.10
1680;DHT22;838;51.794;12.258;2024-03-25T07:27:10;7.60;32.50
1680;DHT22;838;51.794;12.258;2024-03-25T07:29:36;7.50;33.00
1680;DHT22;838;51.794;12.258;2024-03-25T07:32:02;7.60;32.10
1680;DHT22;838;51.794;12.258;2024-03-25T07:34:28;7.60;32.30
1680;DHT22;838;51.794;12.258;2024-03-25T07:36:54;7.80;29.90
1680;DHT22;838;51.794;12.258;2024-03-25T07:39:19;7.80;30.40
1680;DHT22;838;51.794;12.258;2024-03-25T07:41:49;7.90;30.90
1680;DHT22;838;51.794;12.258;2024-03-25T07:44:15;8.00;28.50
1680;DHT22;838;51.794;12.258;2024-03-25T07:46:41;8.00;28.80
1680;DHT22;838;51.794;12.258;2024-03-25T07:49:07;7.90;28.70
1680;DHT22;838;51.794;12.258;2024-03-25T07:51:32;8.10;29.80
1680;DHT22;838;51.794;12.258;2024-03-25T07:54:01;8.10;27.30
1680;DHT22;838;51.794;12.258;2024-03-25T07:56:26;8.00;27.20
1680;DHT22;838;51.794;12.258;2024-03-25T07:58:52;8.00;27.70
1680;DHT22;838;51.794;12.258;2024-03-25T08:01:18;8.10;27.80
1680;DHT22;838;51.794;12.258;2024-03-25T08:03:43;8.40;27.90
1680;DHT22;838;51.794;12.258;2024-03-25T08:06:09;8.60;26.40
1680;DHT22;838;51.794;12.258;2024-03-25T08:08:34;8.80;23.80
1680;DHT22;838;51.794;12.258;2024-03-25T08:11:00;8.80;23.10
1680;DHT22;838;51.794;12.258;2024-03-25T08:13:26;9.00;21.20
1680;DHT22;838;51.794;12.258;2024-03-25T08:15:52;9.10;19.50
1680;DHT22;838;51.794;12.258;2024-03-25T08:18:18;9.20;18.10
1680;DHT22;838;51.794;12.258;2024-03-25T08:20:43;9.30;18.60
1680;DHT22;838;51.794;12.258;2024-03-25T08:23:09;9.70;18.90
1680;DHT22;838;51.794;12.258;2024-03-25T08:25:35;9.70;17.00
1680;DHT22;838;51.794;12.258;2024-03-25T08:28:00;9.80;14.50
1680;DHT22;838;51.794;12.258;2024-03-25T08:30:26;10.00;10.80
1680;DHT22;838;51.794;12.258;2024-03-25T08:32:52;9.90;11.70
1680;DHT22;838;51.794;12.258;2024-03-25T08:35:17;9.80;13.20
1680;DHT22;838;51.794;12.258;2024-03-25T08:37:43;9.80;13.00
1680;DHT22;838;51.794;12.258;2024-03-25T08:40:09;9.80;12.50
1680;DHT22;838;51.794;12.258;2024-03-25T08:42:35;9.70;12.20
1680;DHT22;838;51.794;12.258;2024-03-25T08:45:01;9.80;12.20
1680;DHT22;838;51.794;12.258;2024-03-25T08:47:27;9.90;12.30
1680;DHT22;838;51.794;12.258;2024-03-25T08:49:52;10.00;13.30
1680;DHT22;838;51.794;12.258;2024-03-25T08:52:18;10.00;9.70
1680;DHT22;838;51.794;12.258;2024-03-25T08:54:44;9.80;11.50
1680;DHT22;838;51.794;12.258;2024-03-25T08:57:10;10.00;10.10
1680;DHT22;838;51.794;12.258;2024-03-25T08:59:35;9.70;9.90
1680;DHT22;838;51.794;12.258;2024-03-25T09:02:01;9.60;8.50
1680;DHT22;838;51.794;12.258;2024-03-25T09:04:27;9.70;11.10
1680;DHT22;838;51.794;12.258;2024-03-25T09:06:53;9.60;9.00
1680;DHT22;838;51.794;12.258;2024-03-25T09:09:18;9.60;9.50
1680;DHT22;838;51.794;12.258;2024-03-25T09:12:02;9.60;9.80
1680;DHT22;838;51.794;12.258;2024-03-25T09:14:29;9.60;9.40
1680;DHT22;838;51.794;12.258;2024-03-25T09:16:55;9.90;7.90
1680;DHT22;838;51.794;12.258;2024-03-25T09:19:21;9.90;6.40
1680;DHT22;838;51.794;12.258;2024-03-25T09:21:46;9.90;4.70
1680;DHT22;838;51.794;12.258;2024-03-25T09:24:12;10.00;6.90
1680;DHT22;838;51.794;12.258;2024-03-25T09:26:38;10.30;4.30
1680;DHT22;838;51.794;12.258;2024-03-25T09:29:03;10.70;1.80
1680;DHT22;838;51.794;12.258;2024-03-25T09:31:29;10.80;1.00
1680;DHT22;838;51.794;12.258;2024-03-25T09:33:55;10.60;1.00
1680;DHT22;838;51.794;12.258;2024-03-25T09:36:20;10.40;1.00
1680;DHT22;838;51.794;12.258;2024-03-25T09:38:46;10.40;1.00
1680;DHT22;838;51.794;12.258;2024-03-25T09:41:12;10.40;1.00
1680;DHT22;838;51.794;12.258;2024-03-25T09:43:54;10.60;1.00
1680;DHT22;838;51.794;12.258;2024-03-25T09:46:20;11.10;1.00
1680;DHT22;838;51.794;12.258;2024-03-25T09:48:48;11.40;1.00
1680;DHT22;838;51.794;12.258;2024-03-25T09:51:15;11.30;1.00
1680;DHT22;838;51.794;12.258;2024-03-25T09:53:41;11.10;1.00
1680;DHT22;838;51.794;12.258;2024-03-25T09:56:07;11.10;1.00
1680;DHT22;838;51.794;12.258;2024-03-25T09:58:34;10.90;1.00
1680;DHT22;838;51.794;12.258;2024-03-25T10:01:00;10.40;1.00
1680;DHT22;838;51.794;12.258;2024-03-25T10:03:25;10.00;1.00
1680;DHT22;838;51.794;12.258;2024-03-25T10:05:51;10.00;3.10
1680;DHT22;838;51.794;12.258;2024-03-25T10:08:21;10.00;3.10
1680;DHT22;838;51.794;12.258;2024-03-25T10:10:46;10.00;2.90
1680;DHT22;838;51.794;12.258;2024-03-25T10:13:12;10.10;2.10
1680;DHT22;838;51.794;12.258;2024-03-25T10:15:38;9.90;5.30
1680;DHT22;838;51.794;12.258;2024-03-25T10:18:04;10.10;3.00
1680;DHT22;838;51.794;12.258;2024-03-25T10:20:31;10.30;1.00
1680;DHT22;838;51.794;12.258;2024-03-25T10:22:57;10.50;1.00
1680;DHT22;838;51.794;12.258;2024-03-25T10:25:30;10.50;1.00
1680;DHT22;838;51.794;12.258;2024-03-25T10:27:58;10.80;1.00
1680;DHT22;838;51.794;12.258;2024-03-25T10:30:25;11.00;1.00
1680;DHT22;838;51.794;12.258;2024-03-25T10:33:04;11.30;1.00
1680;DHT22;838;51.794;12.258;2024-03-25T10:35:32;11.80;1.00
1680;DHT22;838;51.794;12.258;2024-03-25T10:38:09;12.20;1.00
1680;DHT22;838;51.794;12.258;2024-03-25T10:40:39;11.90;1.00
1680;DHT22;838;51.794;12.258;2024-03-25T10:43:06;11.60;1.00
1680;DHT22;838;51.794;12.258;2024-03-25T10:45:54;11.40;1.00
1680;DHT22;838;51.794;12.258;2024-03-25T10:48:35;11.30;1.00
1680;DHT22;838;51.794;12.258;2024-03-25T10:51:03;11.30;1.00
1680;DHT22;838;51.794;12.258;2024-03-25T10:53:32;11.40;1.00
1680;DHT22;838;51.794;12.258;2024-03-25T10:56:00;11.60;1.00
1680;DHT22;838;51.794;12.258;2024-03-25T10:58:27;11.90;1.00
1680;DHT22;838;51.794;12.258;2024-03-25T11:00:55;12.20;1.00
1680;DHT22;838;51.794;12.258;2024-03-25T11:03:23;12.30;1.00
1680;DHT22;838;51.794;12.258;2024-03-25T11:05:49;12.40;1.00
1680;DHT22;838;51.794;12.258;2024-03-25T11:08:16;12.00;1.00
1680;DHT22;838;51.794;12.258;2024-03-25T11:10:47;12.00;1.00
1680;DHT22;838;51.794;12.258;2024-03-25T11:13:13;12.00;1.00
1680;DHT22;838;51.794;12.258;2024-03-25T11:15:48;12.20;1.00
1680;DHT22;838;51.794;12.258;2024-03-25T11:18:21;12.20;1.00
1680;DHT22;838;51.794;12.258;2024-03-25T11:21:10;12.00;1.00
1680;DHT22;838;51.794;12.258;2024-03-25T11:23:43;11.30;1.00
1680;DHT22;838;51.794;12.258;2024-03-25T11:26:21;11.10;1.00
1680;DHT22;838;51.794;12.258;2024-03-25T11:28:48;11.00;1.00
1680;DHT22;838;51.794;12.258;2024-03-25T11:31:15;10.50;1.00
1680;DHT22;838;51.794;12.258;2024-03-25T11:33:42;10.20;2.60
1680;DHT22;838;51.794;12.258;2024-03-25T11:36:09;10.00;4.70
1680;DHT22;838;51.794;12.258;2024-03-25T11:38:35;9.90;7.10
1680;DHT22;838;51.794;12.258;2024-03-25T11:41:01;9.70;8.60
1680;DHT22;838;51.794;12.258;2024-03-25T11:43:27;9.70;9.70
1680;DHT22;838;51.794;12.258;2024-03-25T11:45:53;9.60;7.10
1680;DHT22;838;51.794;12.258;2024-03-25T11:48:19;9.60;9.90
1680;DHT22;838;51.794;12.258;2024-03-25T11:50:46;9.50;12.10
1680;DHT22;838;51.794;12.258;2024-03-25T11:53:15;9.50;11.30
1680;DHT22;838;51.794;12.258;2024-03-25T11:55:45;9.50;11.50
1680;DHT22;838;51.794;12.258;2024-03-25T11:58:11;9.50;12.30
1680;DHT22;838;51.794;12.258;2024-03-25T12:00:44;9.20;12.00
1680;DHT22;838;51.794;12.258;2024-03-25T12:03:11;9.20;12.30
1680;DHT22;838;51.794;12.258;2024-03-25T12:05:39;9.20;12.60
1680;DHT22;838;51.794;12.258;2024-03-25T12:08:08;9.30;10.80
1680;DHT22;838;51.794;12.258;2024-03-25T12:10:36;9.20;13.10
1680;DHT22;838;51.794;12.258;2024-03-25T12:13:21;9.40;13.70
1680;DHT22;838;51.794;12.258;2024-03-25T12:15:47;9.50;14.90
1680;DHT22;838;51.794;12.258;2024-03-25T12:18:14;9.60;13.50
1680;DHT22;838;51.794;12.258;2024-03-25T12:20:40;10.20;12.10
1680;DHT22;838;51.794;12.258;2024-03-25T12:23:07;10.90;10.60
1680;DHT22;838;51.794;12.258;2024-03-25T12:25:32;11.60;7.00
1680;DHT22;838;51.794;12.258;2024-03-25T12:27:58;12.00;1.00
1680;DHT22;838;51.794;12.258;2024-03-25T12:30:24;12.20;1.00
1680;DHT22;838;51.794;12.258;2024-03-25T12:32:50;12.40;1.00
1680;DHT22;838;51.794;12.258;2024-03-25T12:35:18;12.30;1.00
1680;DHT22;838;51.794;12.258;2024-03-25T12:37:46;12.40;1.00
1680;DHT22;838;51.794;12.258;2024-03-25T12:40:24;12.20;1.00
1680;DHT22;838;51.794;12.258;2024-03-25T12:42:54;12.00;1.00
1680;DHT22;838;51.794;12.258;2024-03-25T12:45:20;12.10;1.00
1680;DHT22;838;51.794;12.258;2024-03-25T12:47:46;12.20;1.00
1680;DHT22;838;51.794;12.258;2024-03-25T12:50:12;12.50;1.00
1680;DHT22;838;51.794;12.258;2024-03-25T12:52:38;12.30;1.00
1680;DHT22;838;51.794;12.258;2024-03-25T12:55:04;12.60;1.00
1680;DHT22;838;51.794;12.258;2024-03-25T12:57:30;12.50;1.00
1680;DHT22;838;51.794;12.258;2024-03-25T12:59:55;12.20;1.00
1680;DHT22;838;51.794;12.258;2024-03-25T13:02:21;12.10;1.00
1680;DHT22;838;51.794;12.258;2024-03-25T13:04:47;12.00;1.00
1680;DHT22;838;51.794;12.258;2024-03-25T13:07:13;11.80;1.00
1680;DHT22;838;51.794;12.258;2024-03-25T13:09:38;11.80;1.00
1680;DHT22;838;51.794;12.258;2024-03-25T13:12:04;11.90;1.00
1680;DHT22;838;51.794;12.258;2024-03-25T13:14:30;11.90;1.00
1680;DHT22;838;51.794;12.258;2024-03-25T13:16:56;12.00;1.00
1680;DHT22;838;51.794;12.258;2024-03-25T13:19:21;11.90;1.00
1680;DHT22;838;51.794;12.258;2024-03-25T13:21:47;11.90;1.00
1680;DHT22;838;51.794;12.258;2024-03-25T13:24:14;11.70;1.00
1680;DHT22;838;51.794;12.258;2024-03-25T13:26:39;11.80;1.00
1680;DHT22;838;51.794;12.258;2024-03-25T13:29:05;11.90;1.00
1680;DHT22;838;51.794;12.258;2024-03-25T13:31:33;11.70;1.00
1680;DHT22;838;51.794;12.258;2024-03-25T13:33:59;11.10;1.00
1680;DHT22;838;51.794;12.258;2024-03-25T13:36:25;10.80;1.00
1680;DHT22;838;51.794;12.258;2024-03-25T13:38:51;10.90;1.00
1680;DHT22;838;51.794;12.258;2024-03-25T13:41:17;10.90;1.00
1680;DHT22;838;51.794;12.258;2024-03-25T13:43:48;11.00;1.00
1680;DHT22;838;51.794;12.258;2024-03-25T13:46:13;11.10;1.00
1680;DHT22;838;51.794;12.258;2024-03-25T13:48:40;11.30;1.00
1680;DHT22;838;51.794;12.258;2024-03-25T13:51:05;11.40;1.00
1680;DHT22;838;51.794;12.258;2024-03-25T13:53:31;11.40;1.00
1680;DHT22;838;51.794;12.258;2024-03-25T13:55:58;11.40;1.00
1680;DHT22;838;51.794;12.258;2024-03-25T13:58:23;11.40;1.00
1680;DHT22;838;51.794;12.258;2024-03-25T14:00:49;11.40;1.00
1680;DHT22;838;51.794;12.258;2024-03-25T14:03:15;11.50;1.00
1680;DHT22;838;51.794;12.258;2024-03-25T14:05:42;11.50;1.00
1680;DHT22;838;51.794;12.258;2024-03-25T14:08:07;11.60;1.00
1680;DHT22;838;51.794;12.258;2024-03-25T14:10:33;11.70;1.00
1680;DHT22;838;51.794;12.258;2024-03-25T14:12:59;11.30;1.00
1680;DHT22;838;51.794;12.258;2024-03-25T14:15:24;11.00;1.00
1680;DHT22;838;51.794;12.258;2024-03-25T14:17:50;11.10;1.00
1680;DHT22;838;51.794;12.258;2024-03-25T14:20:16;11.40;1.00
1680;DHT22;838;51.794;12.258;2024-03-25T14:22:42;11.30;1.00
1680;DHT22;838;51.794;12.258;2024-03-25T14:25:08;11.40;1.00
1680;DHT22;838;51.794;12.258;2024-03-25T14:27:34;11.30;1.00
1680;DHT22;838;51.794;12.258;2024-03-25T14:30:00;11.50;1.00
1680;DHT22;838;51.794;12.258;2024-03-25T14:32:25;11.70;1.00
1680;DHT22;838;51.794;12.258;2024-03-25T14:34:51;11.70;1.00
1680;DHT22;838;51.794;12.258;2024-03-25T14:37:17;11.60;1.00
1680;DHT22;838;51.794;12.258;2024-03-25T14:39:43;11.60;1.00
1680;DHT22;838;51.794;12.258;2024-03-25T14:42:09;11.60;1.00
1680;DHT22;838;51.794;12.258;2024-03-25T14:44:36;11.50;1.00
1680;DHT22;838;51.794;12.258;2024-03-25T14:47:02;11.60;1.00
1680;DHT22;838;51.794;12.258;2024-03-25T14:49:28;11.70;1.00
1680;DHT22;838;51.794;12.258;2024-03-25T14:51:53;11.90;1.00
1680;DHT22;838;51.794;12.258;2024-03-25T14:54:19;11.70;1.00
1680;DHT22;838;51.794;12.258;2024-03-25T14:56:46;11.70;1.00
1680;DHT22;838;51.794;12.258;2024-03-25T14:59:11;11.60;1.00
1680;DHT22;838;51.794;12.258;2024-03-25T15:01:37;11.40;1.00
1680;DHT22;838;51.794;12.258;2024-03-25T15:04:04;11.60;1.00
1680;DHT22;838;51.794;12.258;2024-03-25T15:06:30;11.80;1.00
1680;DHT22;838;51.794;12.258;2024-03-25T15:08:59;11.80;1.00
1680;DHT22;838;51.794;12.258;2024-03-25T15:11:25;11.70;1.00
1680;DHT22;838;51.794;12.258;2024-03-25T15:13:52;11.70;1.00
1680;DHT22;838;51.794;12.258;2024-03-25T15:16:18;11.70;1.00
1680;DHT22;838;51.794;12.258;2024-03-25T15:18:44;11.60;1.00
1680;DHT22;838;51.794;12.258;2024-03-25T15:21:10;11.70;1.00
1680;DHT22;838;51.794;12.258;2024-03-25T15:23:36;11.70;1.00
1680;DHT22;838;51.794;12.258;2024-03-25T15:26:02;11.90;1.00
1680;DHT22;838;51.794;12.258;2024-03-25T15:28:28;12.20;1.00
1680;DHT22;838;51.794;12.258;2024-03-25T15:30:55;12.40;1.00
1680;DHT22;838;51.794;12.258;2024-03-25T15:33:21;12.60;1.00
1680;DHT22;838;51.794;12.258;2024-03-25T15:35:48;12.80;1.00
1680;DHT22;838;51.794;12.258;2024-03-25T15:38:14;13.00;1.00
1680;DHT22;838;51.794;12.258;2024-03-25T15:40:40;13.10;1.00
1680;DHT22;838;51.794;12.258;2024-03-25T15:43:06;12.90;1.00
1680;DHT22;838;51.794;12.258;2024-03-25T15:45:33;12.50;1.00
1680;DHT22;838;51.794;12.258;2024-03-25T15:47:58;12.20;1.00
1680;DHT22;838;51.794;12.258;2024-03-25T15:50:25;11.90;1.00
1680;DHT22;838;51.794;12.258;2024-03-25T15:52:51;11.90;1.00
1680;DHT22;838;51.794;12.258;2024-03-25T15:55:17;11.60;1.00
1680;DHT22;838;51.794;12.258;2024-03-25T15:57:44;11.50;1.00
1680;DHT22;838;51.794;12.258;2024-03-25T16:00:10;11.30;1.00
1680;DHT22;838;51.794;12.258;2024-03-25T16:02:38;11.30;1.00
1680;DHT22;838;51.794;12.258;2024-03-25T16:05:04;11.20;1.00
1680;DHT22;838;51.794;12.258;2024-03-25T16:07:30;11.00;1.00
1680;DHT22;838;51.794;12.258;2024-03-25T16:09:57;10.80;1.00
1680;DHT22;838;51.794;12.258;2024-03-25T16:12:23;10.70;1.00
1680;DHT22;838;51.794;12.258;2024-03-25T16:14:49;10.60;1.00
1680;DHT22;838;51.794;12.258;2024-03-25T16:17:15;10.50;1.00